Time;durP1;ratioP1;P1;durP2;ratioP2;P2;SDS_P1;SDS_P2;PMS_P1;PMS_P2;Temp;Humidity;BMP_temperature;BMP_pressure;BME280_temperature;BME280_humidity;BME280_pressure;Samples;Min_cycle;Max_cycle;Signal;HPM_P1;HPM_P2
2020/12/23 00:01:31;;;;;;;1.42;1.20;;;;;;;;;;5060839;28;20479;-42
2020/12/23 00:03:58;;;;;;;0.98;0.80;;;;;;;;;;5054699;28;20223;-42
2020/12/23 00:06:34;;;;;;;2.58;1.00;;;;;;;;;;5056589;28;20924;-42
2020/12/23 00:09:02;;;;;;;0.80;0.80;;;;;;;;;;5062767;28;20178;-42
2020/12/23 00:11:28;;;;;;;1.02;0.90;;;;;;;;;;5074757;28;20197;-42
2020/12/23 00:13:54;;;;;;;1.80;1.00;;;;;;;;;;5056040;28;20191;-42
2020/12/23 00:16:20;;;;;;;1.17;0.90;;;;;;;;;;5054629;28;20176;-42
2020/12/23 00:18:46;;;;;;;1.75;1.08;;;;;;;;;;5054255;28;20205;-42
2020/12/23 00:21:12;;;;;;;1.52;0.82;;;;;;;;;;5054463;28;20282;-42
2020/12/23 00:23:38;;;;;;;1.70;1.08;;;;;;;;;;5054670;28;20183;-42
2020/12/23 00:26:13;;;;;;;0.80;0.80;;;;;;;;;;5058535;28;20249;-42
2020/12/23 00:28:41;;;;;;;0.85;0.82;;;;;;;;;;5074232;28;20261;-42
2020/12/23 00:31:07;;;;;;;2.15;0.95;;;;;;;;;;5074839;28;20183;-42
2020/12/23 00:33:34;;;;;;;2.25;0.82;;;;;;;;;;5061865;28;20571;-42
2020/12/23 00:36:00;;;;;;;1.55;0.80;;;;;;;;;;5057944;28;20181;-42
2020/12/23 00:38:26;;;;;;;0.95;0.70;;;;;;;;;;5055193;28;20262;-42
2020/12/23 00:40:52;;;;;;;1.08;0.85;;;;;;;;;;5057704;28;20199;-42
2020/12/23 00:43:18;;;;;;;0.80;0.68;;;;;;;;;;5057759;28;20503;-42
2020/12/23 00:45:44;;;;;;;0.70;0.70;;;;;;;;;;5057953;28;20286;-42
2020/12/23 00:48:09;;;;;;;2.25;0.90;;;;;;;;;;5061265;28;20265;-42
2020/12/23 00:50:35;;;;;;;1.20;0.90;;;;;;;;;;5060117;28;20194;-42
2020/12/23 00:53:01;;;;;;;1.17;0.90;;;;;;;;;;5057780;28;20615;-42
2020/12/23 00:55:27;;;;;;;0.70;0.68;;;;;;;;;;5057073;28;20179;-42
2020/12/23 00:57:53;;;;;;;1.02;0.82;;;;;;;;;;5076672;28;20239;-42
2020/12/23 01:00:19;;;;;;;0.93;0.82;;;;;;;;;;5072256;28;20183;-42
2020/12/23 01:02:45;;;;;;;0.77;0.68;;;;;;;;;;5057376;28;20538;-42
2020/12/23 01:05:11;;;;;;;0.90;0.90;;;;;;;;;;5064633;28;20230;-42
2020/12/23 01:07:37;;;;;;;0.70;0.70;;;;;;;;;;5070784;28;20497;-42
2020/12/23 01:10:03;;;;;;;0.80;0.70;;;;;;;;;;5057718;28;20213;-42
2020/12/23 01:12:29;;;;;;;0.70;0.70;;;;;;;;;;5057824;28;20217;-42
2020/12/23 01:14:55;;;;;;;1.05;0.80;;;;;;;;;;5076343;28;20195;-42
2020/12/23 01:17:21;;;;;;;0.65;0.65;;;;;;;;;;5062213;28;20262;-42
2020/12/23 01:19:47;;;;;;;0.70;0.70;;;;;;;;;;5057529;28;20191;-42
2020/12/23 01:22:13;;;;;;;1.27;0.93;;;;;;;;;;5061364;28;20190;-42
2020/12/23 01:24:39;;;;;;;1.00;0.80;;;;;;;;;;5076605;28;20290;-42
2020/12/23 01:27:05;;;;;;;0.93;0.75;;;;;;;;;;5065589;28;20546;-42
2020/12/23 01:29:31;;;;;;;0.60;0.52;;;;;;;;;;5072560;28;20182;-42
2020/12/23 01:31:57;;;;;;;0.85;0.80;;;;;;;;;;5076985;28;20184;-42
2020/12/23 01:34:23;;;;;;;0.80;0.80;;;;;;;;;;5059890;28;20229;-42
2020/12/23 01:36:50;;;;;;;0.65;0.60;;;;;;;;;;5065975;28;20182;-42
2020/12/23 01:39:16;;;;;;;1.83;0.80;;;;;;;;;;5067037;28;20198;-42
2020/12/23 01:41:42;;;;;;;0.75;0.70;;;;;;;;;;5056753;28;20179;-42
2020/12/23 01:44:08;;;;;;;0.80;0.80;;;;;;;;;;5056045;28;20191;-42
2020/12/23 01:46:35;;;;;;;0.80;0.63;;;;;;;;;;5062720;28;20304;-42
2020/12/23 01:49:03;;;;;;;1.58;0.70;;;;;;;;;;5059695;28;20206;-42
2020/12/23 01:51:29;;;;;;;0.95;0.70;;;;;;;;;;5056292;28;20175;-42
2020/12/23 01:53:56;;;;;;;0.65;0.50;;;;;;;;;;5057012;28;20171;-42
2020/12/23 01:56:22;;;;;;;0.88;0.73;;;;;;;;;;5064672;28;20209;-42
2020/12/23 01:58:48;;;;;;;0.70;0.70;;;;;;;;;;5076679;28;20546;-42
2020/12/23 02:01:19;;;;;;;0.70;0.70;;;;;;;;;;5061886;28;20207;-41
2020/12/23 02:03:45;;;;;;;0.57;0.57;;;;;;;;;;5056491;28;20221;-42
2020/12/23 02:06:11;;;;;;;0.65;0.60;;;;;;;;;;5058812;28;20174;-41
2020/12/23 02:08:37;;;;;;;0.82;0.63;;;;;;;;;;5074375;28;20193;-42
2020/12/23 02:11:10;;;;;;;0.77;0.75;;;;;;;;;;5073963;28;20265;-42
2020/12/23 02:13:37;;;;;;;1.85;0.60;;;;;;;;;;5056868;28;20237;-42
2020/12/23 02:16:03;;;;;;;0.50;0.50;;;;;;;;;;5075402;28;20253;-42
2020/12/23 02:18:29;;;;;;;0.63;0.63;;;;;;;;;;5068741;28;20271;-41
2020/12/23 02:20:55;;;;;;;0.52;0.50;;;;;;;;;;5056450;28;20602;-41
2020/12/23 02:23:21;;;;;;;1.02;0.63;;;;;;;;;;5056209;28;20179;-42
2020/12/23 02:25:47;;;;;;;0.80;0.57;;;;;;;;;;5055484;28;20293;-42
2020/12/23 02:28:13;;;;;;;0.70;0.60;;;;;;;;;;5066536;28;20254;-41
2020/12/23 02:30:39;;;;;;;0.60;0.60;;;;;;;;;;5074847;28;20309;-42
2020/12/23 02:33:05;;;;;;;0.73;0.60;;;;;;;;;;5075834;28;20216;-42
2020/12/23 02:35:31;;;;;;;0.70;0.70;;;;;;;;;;5075284;28;20557;-42
2020/12/23 02:37:57;;;;;;;0.55;0.55;;;;;;;;;;5069783;28;20191;-42
2020/12/23 02:40:23;;;;;;;0.50;0.50;;;;;;;;;;5056809;28;20551;-42
2020/12/23 02:42:49;;;;;;;1.15;0.65;;;;;;;;;;5070323;28;20186;-42
2020/12/23 02:45:15;;;;;;;0.55;0.55;;;;;;;;;;5075026;28;20235;-42
2020/12/23 02:47:41;;;;;;;0.55;0.45;;;;;;;;;;5068707;28;20174;-42
2020/12/23 02:50:07;;;;;;;0.50;0.50;;;;;;;;;;5070718;28;20178;-42
2020/12/23 02:52:33;;;;;;;0.60;0.60;;;;;;;;;;5069606;28;20268;-42
2020/12/23 02:54:59;;;;;;;0.40;0.40;;;;;;;;;;5054990;28;20179;-42
2020/12/23 02:57:25;;;;;;;0.57;0.52;;;;;;;;;;5068562;28;20232;-42
2020/12/23 02:59:51;;;;;;;1.23;0.68;;;;;;;;;;5075521;28;20429;-42
2020/12/23 03:02:17;;;;;;;0.50;0.50;;;;;;;;;;5073060;28;20210;-41
2020/12/23 03:04:43;;;;;;;0.65;0.65;;;;;;;;;;5073584;28;20249;-43
2020/12/23 03:07:09;;;;;;;0.77;0.52;;;;;;;;;;5074514;28;20174;-42
2020/12/23 03:09:35;;;;;;;0.82;0.70;;;;;;;;;;5061565;28;20194;-42
2020/12/23 03:12:01;;;;;;;1.05;0.68;;;;;;;;;;5067707;28;20217;-42
2020/12/23 03:14:27;;;;;;;0.50;0.50;;;;;;;;;;5074358;28;20178;-42
2020/12/23 03:16:53;;;;;;;0.43;0.43;;;;;;;;;;5067688;28;20175;-42
2020/12/23 03:19:19;;;;;;;0.50;0.50;;;;;;;;;;5055193;28;20266;-42
2020/12/23 03:21:45;;;;;;;0.50;0.50;;;;;;;;;;5055342;28;20176;-42
2020/12/23 03:24:11;;;;;;;0.40;0.40;;;;;;;;;;5054753;28;20206;-42
2020/12/23 03:26:37;;;;;;;0.43;0.43;;;;;;;;;;5073068;28;20190;-41
2020/12/23 03:29:03;;;;;;;0.50;0.50;;;;;;;;;;5073394;28;20174;-42
2020/12/23 03:31:29;;;;;;;0.40;0.32;;;;;;;;;;5058569;28;20167;-42
2020/12/23 03:33:56;;;;;;;0.63;0.50;;;;;;;;;;5074747;28;20217;-42
2020/12/23 03:36:22;;;;;;;0.40;0.40;;;;;;;;;;5074511;28;20175;-42
2020/12/23 03:38:48;;;;;;;0.50;0.50;;;;;;;;;;5075296;28;20261;-42
2020/12/23 03:41:16;;;;;;;1.08;0.47;;;;;;;;;;5073503;28;20499;-42
2020/12/23 03:43:42;;;;;;;0.60;0.60;;;;;;;;;;5074912;28;20166;-42
2020/12/23 03:46:08;;;;;;;0.55;0.55;;;;;;;;;;5072754;28;20220;-42
2020/12/23 03:48:34;;;;;;;0.80;0.68;;;;;;;;;;5060639;28;20183;-42
2020/12/23 03:51:00;;;;;;;0.40;0.40;;;;;;;;;;5055248;28;20183;-42
2020/12/23 03:53:26;;;;;;;0.47;0.47;;;;;;;;;;5054121;28;20179;-42
2020/12/23 03:55:52;;;;;;;0.57;0.57;;;;;;;;;;5064127;28;20216;-42
2020/12/23 03:58:18;;;;;;;1.02;0.50;;;;;;;;;;5066753;28;20229;-42
2020/12/23 04:00:44;;;;;;;0.50;0.45;;;;;;;;;;5058388;28;20191;-41
2020/12/23 04:03:10;;;;;;;0.85;0.50;;;;;;;;;;5075219;28;20267;-41
2020/12/23 04:05:37;;;;;;;0.30;0.30;;;;;;;;;;5074017;28;20198;-41
2020/12/23 04:08:03;;;;;;;0.30;0.30;;;;;;;;;;5074879;28;20572;-42
2020/12/23 04:10:29;;;;;;;0.40;0.40;;;;;;;;;;5074666;28;20573;-42
2020/12/23 04:12:55;;;;;;;0.40;0.40;;;;;;;;;;5069644;28;20181;-41
2020/12/23 04:15:21;;;;;;;0.60;0.50;;;;;;;;;;5072336;28;20191;-41
2020/12/23 04:17:47;;;;;;;0.40;0.40;;;;;;;;;;5077745;28;20204;-42
2020/12/23 04:20:13;;;;;;;0.70;0.52;;;;;;;;;;5078150;28;20198;-42
2020/12/23 04:22:40;;;;;;;0.55;0.45;;;;;;;;;;5078216;28;20187;-42
2020/12/23 04:25:07;;;;;;;0.47;0.47;;;;;;;;;;5077747;28;20233;-41
2020/12/23 04:27:33;;;;;;;0.55;0.43;;;;;;;;;;5077452;28;20561;-41
2020/12/23 04:29:59;;;;;;;0.70;0.50;;;;;;;;;;5075932;28;20199;-41
2020/12/23 04:32:25;;;;;;;1.55;0.43;;;;;;;;;;5077850;28;20170;-41
2020/12/23 04:34:51;;;;;;;0.30;0.30;;;;;;;;;;5059765;28;20179;-42
2020/12/23 04:37:17;;;;;;;0.95;0.60;;;;;;;;;;5076876;28;20182;-42
2020/12/23 04:39:43;;;;;;;0.38;0.38;;;;;;;;;;5078053;28;20179;-42
2020/12/23 04:42:09;;;;;;;0.40;0.40;;;;;;;;;;5063885;28;20271;-42
2020/12/23 04:44:36;;;;;;;0.52;0.52;;;;;;;;;;5057330;28;20290;-42
2020/12/23 04:47:02;;;;;;;0.57;0.57;;;;;;;;;;5067442;28;20228;-42
2020/12/23 04:49:33;;;;;;;0.52;0.50;;;;;;;;;;5057660;28;20215;-41
2020/12/23 04:51:59;;;;;;;0.40;0.40;;;;;;;;;;5057783;28;20435;-41
2020/12/23 04:54:25;;;;;;;0.30;0.30;;;;;;;;;;5072000;28;20194;-42
2020/12/23 04:56:51;;;;;;;0.68;0.40;;;;;;;;;;5058005;28;20430;-42
2020/12/23 04:59:17;;;;;;;0.30;0.30;;;;;;;;;;5077872;28;20187;-42
2020/12/23 05:01:43;;;;;;;0.98;0.28;;;;;;;;;;5077151;28;20232;-42
2020/12/23 05:04:09;;;;;;;0.40;0.40;;;;;;;;;;5059982;28;20195;-42
2020/12/23 05:06:36;;;;;;;0.30;0.30;;;;;;;;;;5057237;28;20207;-42
2020/12/23 05:09:06;;;;;;;1.77;0.45;;;;;;;;;;5061375;28;20615;-42
2020/12/23 05:11:33;;;;;;;0.32;0.32;;;;;;;;;;5076612;28;20175;-42
2020/12/23 05:14:02;;;;;;;1.10;0.40;;;;;;;;;;5077474;28;20171;-42
2020/12/23 05:16:28;;;;;;;2.38;0.40;;;;;;;;;;5076476;28;20229;-42
2020/12/23 05:18:57;;;;;;;0.70;0.47;;;;;;;;;;5075685;28;20289;-42
2020/12/23 05:21:24;;;;;;;0.30;0.30;;;;;;;;;;5077437;28;20216;-42
2020/12/23 05:23:51;;;;;;;0.40;0.40;;;;;;;;;;5077038;28;20174;-42
2020/12/23 05:26:17;;;;;;;1.77;0.50;;;;;;;;;;5075447;28;20189;-42
2020/12/23 05:28:44;;;;;;;0.40;0.40;;;;;;;;;;5077163;28;20182;-42
2020/12/23 05:31:11;;;;;;;0.40;0.40;;;;;;;;;;5077335;28;20185;-42
2020/12/23 05:33:38;;;;;;;1.08;0.50;;;;;;;;;;5076750;28;20175;-42
2020/12/23 05:36:08;;;;;;;1.00;0.50;;;;;;;;;;5074923;28;20186;-42
2020/12/23 05:38:35;;;;;;;0.22;0.22;;;;;;;;;;5065933;28;20190;-42
2020/12/23 05:41:05;;;;;;;0.50;0.50;;;;;;;;;;5057409;28;20268;-42
2020/12/23 05:43:32;;;;;;;0.60;0.55;;;;;;;;;;5056874;28;20254;-42
2020/12/23 05:45:59;;;;;;;0.50;0.50;;;;;;;;;;5055823;28;20206;-42
2020/12/23 05:48:26;;;;;;;0.45;0.45;;;;;;;;;;5068676;28;20256;-42
2020/12/23 05:50:52;;;;;;;0.30;0.30;;;;;;;;;;5076994;28;20177;-41
2020/12/23 05:53:18;;;;;;;0.60;0.30;;;;;;;;;;5058521;28;20201;-41
2020/12/23 05:55:45;;;;;;;0.40;0.40;;;;;;;;;;5056233;28;20197;-41
2020/12/23 05:58:20;;;;;;;0.43;0.43;;;;;;;;;;5056989;28;20531;-41
2020/12/23 06:00:47;;;;;;;0.63;0.40;;;;;;;;;;5056379;28;20195;-41
2020/12/23 06:03:21;;;;;;;0.60;0.38;;;;;;;;;;5056641;28;20534;-41
2020/12/23 06:05:56;;;;;;;0.40;0.40;;;;;;;;;;5055748;28;20207;-41
2020/12/23 06:08:25;;;;;;;0.45;0.45;;;;;;;;;;5062352;28;20196;-41
2020/12/23 06:10:57;;;;;;;0.50;0.50;;;;;;;;;;5065839;28;20265;-41
2020/12/23 06:13:35;;;;;;;0.40;0.35;;;;;;;;;;5056181;28;20504;-41
2020/12/23 06:16:03;;;;;;;0.20;0.20;;;;;;;;;;5055094;28;20183;-41
2020/12/23 06:18:31;;;;;;;0.82;0.50;;;;;;;;;;5055825;28;20174;-41
2020/12/23 06:20:58;;;;;;;0.40;0.30;;;;;;;;;;5056315;28;20211;-41
2020/12/23 06:23:27;;;;;;;0.40;0.40;;;;;;;;;;5056044;28;20210;-41
2020/12/23 06:25:53;;;;;;;0.32;0.30;;;;;;;;;;5056773;28;20205;-41
2020/12/23 06:28:22;;;;;;;0.55;0.50;;;;;;;;;;5055999;28;20525;-41
2020/12/23 06:30:52;;;;;;;0.40;0.40;;;;;;;;;;5056565;28;20213;-41
2020/12/23 06:33:19;;;;;;;0.60;0.40;;;;;;;;;;5056135;28;20499;-41
2020/12/23 06:35:45;;;;;;;0.60;0.45;;;;;;;;;;5069675;28;20182;-42
2020/12/23 06:38:21;;;;;;;0.40;0.40;;;;;;;;;;5075885;28;20179;-42
2020/12/23 06:41:00;;;;;;;0.35;0.35;;;;;;;;;;5074441;28;20178;-41
2020/12/23 06:43:49;;;;;;;1.38;0.30;;;;;;;;;;5075314;28;20200;-41
2020/12/23 06:46:15;;;;;;;0.30;0.30;;;;;;;;;;5051468;28;20210;-41
2020/12/23 06:48:41;;;;;;;0.38;0.38;;;;;;;;;;5069382;28;20277;-41
2020/12/23 06:51:07;;;;;;;0.50;0.50;;;;;;;;;;5075987;28;20449;-41
2020/12/23 06:53:36;;;;;;;0.40;0.40;;;;;;;;;;5075667;28;20186;-41
2020/12/23 06:56:02;;;;;;;0.30;0.30;;;;;;;;;;5075139;28;20508;-41
2020/12/23 06:58:37;;;;;;;0.32;0.30;;;;;;;;;;5058443;28;20273;-41
2020/12/23 07:01:16;;;;;;;0.40;0.40;;;;;;;;;;5055248;28;20281;-41
2020/12/23 07:03:43;;;;;;;0.30;0.30;;;;;;;;;;5068657;28;20201;-42
2020/12/23 07:06:48;;;;;;;0.38;0.35;;;;;;;;;;5075234;28;20242;-41
2020/12/23 07:09:14;;;;;;;0.75;0.35;;;;;;;;;;5033617;28;20187;-41
2020/12/23 07:11:41;;;;;;;0.30;0.30;;;;;;;;;;5032569;28;20191;-41
2020/12/23 07:14:06;;;;;;;1.00;0.70;;;;;;;;;;5041871;28;20554;-41
2020/12/23 07:16:39;;;;;;;0.85;0.60;;;;;;;;;;5064901;28;20221;-41
2020/12/23 07:19:06;;;;;;;0.68;0.60;;;;;;;;;;5075440;28;20708;-41
2020/12/23 07:21:32;;;;;;;1.08;0.98;;;;;;;;;;5060025;28;20179;-41
2020/12/23 07:24:00;;;;;;;2.15;1.30;;;;;;;;;;5054360;28;20167;-41
2020/12/23 07:26:26;;;;;;;1.35;1.25;;;;;;;;;;5060521;28;20190;-41
2020/12/23 07:28:52;;;;;;;2.88;1.10;;;;;;;;;;5073627;28;20561;-41
2020/12/23 07:31:18;;;;;;;2.58;1.30;;;;;;;;;;5066210;28;20182;-41
2020/12/23 07:33:44;;;;;;;4.32;1.30;;;;;;;;;;5055167;28;20193;-41
2020/12/23 07:36:10;;;;;;;2.22;1.20;;;;;;;;;;5054407;28;20179;-41
2020/12/23 07:38:41;;;;;;;1.40;1.00;;;;;;;;;;5054728;28;20225;-41
2020/12/23 07:41:11;;;;;;;0.82;0.80;;;;;;;;;;5055430;28;20222;-41
2020/12/23 07:43:37;;;;;;;2.35;1.00;;;;;;;;;;5054864;28;20182;-41
2020/12/23 07:46:03;;;;;;;1.67;1.10;;;;;;;;;;5055247;28;20207;-41
2020/12/23 07:48:29;;;;;;;2.45;1.02;;;;;;;;;;5067369;28;20182;-41
2020/12/23 07:50:56;;;;;;;1.70;0.93;;;;;;;;;;5077546;28;20457;-41
2020/12/23 07:53:26;;;;;;;1.35;1.20;;;;;;;;;;5078286;28;20178;-41
2020/12/23 07:56:01;;;;;;;2.17;1.02;;;;;;;;;;5077921;28;20727;-41
2020/12/23 07:58:27;;;;;;;1.73;1.23;;;;;;;;;;5077592;28;20173;-41
2020/12/23 08:00:53;;;;;;;0.88;0.80;;;;;;;;;;5058906;28;20195;-42
2020/12/23 08:03:29;;;;;;;2.35;1.35;;;;;;;;;;5060245;28;20569;-42
2020/12/23 08:06:16;;;;;;;1.35;0.95;;;;;;;;;;5058262;28;20194;-41
2020/12/23 08:08:42;;;;;;;2.17;1.13;;;;;;;;;;5071846;28;20174;-41
2020/12/23 08:11:11;;;;;;;1.45;1.00;;;;;;;;;;5078879;28;20217;-41
2020/12/23 08:13:38;;;;;;;1.52;1.00;;;;;;;;;;5074102;28;20179;-41
2020/12/23 08:16:05;;;;;;;0.80;0.80;;;;;;;;;;5072034;28;20190;-41
2020/12/23 08:18:31;;;;;;;1.98;0.95;;;;;;;;;;5058959;28;20190;-41
2020/12/23 08:20:57;;;;;;;2.72;0.93;;;;;;;;;;5060120;28;20186;-42
2020/12/23 08:23:23;;;;;;;0.95;0.70;;;;;;;;;;5073345;28;20239;-41
2020/12/23 08:25:49;;;;;;;2.50;0.80;;;;;;;;;;5068841;28;20286;-42
2020/12/23 08:28:17;;;;;;;2.08;1.00;;;;;;;;;;5070143;28;20176;-42
2020/12/23 08:30:43;;;;;;;3.40;1.10;;;;;;;;;;5076017;28;20181;-42
2020/12/23 08:33:14;;;;;;;1.15;1.00;;;;;;;;;;5061202;28;20456;-42
2020/12/23 08:35:41;;;;;;;2.22;0.88;;;;;;;;;;5062296;28;20562;-42
2020/12/23 08:38:17;;;;;;;4.55;1.20;;;;;;;;;;5064210;28;20229;-42
2020/12/23 08:40:46;;;;;;;2.30;0.80;;;;;;;;;;5056786;28;20186;-42
2020/12/23 08:43:19;;;;;;;1.55;1.00;;;;;;;;;;5058149;28;20436;-42
2020/12/23 08:45:46;;;;;;;1.85;0.80;;;;;;;;;;5056719;28;20333;-41
2020/12/23 08:48:17;;;;;;;1.67;1.02;;;;;;;;;;5064504;28;20202;-42
2020/12/23 08:50:43;;;;;;;3.03;0.88;;;;;;;;;;5064627;28;20179;-42
2020/12/23 08:53:09;;;;;;;2.25;0.77;;;;;;;;;;5064494;28;20469;-40
2020/12/23 08:55:38;;;;;;;1.70;0.80;;;;;;;;;;5064672;28;20183;-41
2020/12/23 08:58:08;;;;;;;2.22;0.82;;;;;;;;;;5064073;28;20198;-42
2020/12/23 09:00:34;;;;;;;3.10;1.20;;;;;;;;;;5067764;28;20186;-41
2020/12/23 09:03:00;;;;;;;0.80;0.70;;;;;;;;;;5070350;28;20222;-41
2020/12/23 09:05:30;;;;;;;1.10;1.00;;;;;;;;;;5071580;28;20527;-42
2020/12/23 09:08:23;;;;;;;1.95;0.80;;;;;;;;;;5060655;28;20206;-42
2020/12/23 09:10:55;;;;;;;1.25;1.08;;;;;;;;;;5063830;28;20245;-42
2020/12/23 09:13:29;;;;;;;1.35;0.73;;;;;;;;;;5064023;28;20223;-42
2020/12/23 09:15:55;;;;;;;0.93;0.80;;;;;;;;;;5061816;28;20266;-42
2020/12/23 09:18:22;;;;;;;1.27;0.90;;;;;;;;;;5063104;28;20304;-43
2020/12/23 09:20:56;;;;;;;1.67;0.80;;;;;;;;;;5063736;28;20668;-43
2020/12/23 09:23:22;;;;;;;2.70;1.40;;;;;;;;;;5059328;28;20202;-43
2020/12/23 09:25:48;;;;;;;6.07;2.40;;;;;;;;;;5069156;28;20306;-45
2020/12/23 09:28:15;;;;;;;7.00;2.78;;;;;;;;;;5062992;28;20179;-46
2020/12/23 09:30:46;;;;;;;6.72;2.63;;;;;;;;;;5073251;28;20170;-44
2020/12/23 09:33:19;;;;;;;6.03;2.60;;;;;;;;;;5075317;28;20506;-44
2020/12/23 09:35:46;;;;;;;7.38;2.58;;;;;;;;;;5071715;28;20191;-45
2020/12/23 09:38:23;;;;;;;8.20;2.90;;;;;;;;;;5063253;28;20179;-44
2020/12/23 09:40:53;;;;;;;3.35;2.08;;;;;;;;;;5071249;28;20177;-43
2020/12/23 09:43:20;;;;;;;6.00;2.60;;;;;;;;;;5074292;28;20182;-43
2020/12/23 09:45:50;;;;;;;3.03;2.30;;;;;;;;;;5074297;28;20215;-42
2020/12/23 09:48:16;;;;;;;5.47;2.20;;;;;;;;;;5068057;28;20178;-43
2020/12/23 09:50:43;;;;;;;4.25;2.38;;;;;;;;;;5063411;28;20278;-41
2020/12/23 09:53:10;;;;;;;6.00;2.60;;;;;;;;;;5057120;28;20206;-44
2020/12/23 09:55:36;;;;;;;5.88;2.67;;;;;;;;;;5056857;28;20174;-43
2020/12/23 09:58:02;;;;;;;5.43;2.42;;;;;;;;;;5062951;28;20445;-45
2020/12/23 10:00:28;;;;;;;7.45;2.60;;;;;;;;;;5065593;28;20195;-44
2020/12/23 10:02:55;;;;;;;8.30;3.00;;;;;;;;;;5058458;28;20198;-48
2020/12/23 10:05:21;;;;;;;20.00;6.00;;;;;;;;;;5064506;28;20206;-46
2020/12/23 10:07:47;;;;;;;34.30;8.23;;;;;;;;;;5058027;28;20183;-46
2020/12/23 10:10:13;;;;;;;27.70;7.88;;;;;;;;;;5058974;28;20183;-47
2020/12/23 10:12:39;;;;;;;32.38;7.43;;;;;;;;;;5062410;28;20198;-47
2020/12/23 10:15:06;;;;;;;34.00;8.68;;;;;;;;;;5055926;28;20191;-47
2020/12/23 10:17:32;;;;;;;31.67;8.52;;;;;;;;;;5066315;28;20214;-47
2020/12/23 10:19:58;;;;;;;28.77;8.13;;;;;;;;;;5078858;28;20572;-46
2020/12/23 10:22:24;;;;;;;36.85;9.32;;;;;;;;;;5078699;28;20226;-47
2020/12/23 10:24:50;;;;;;;32.33;9.65;;;;;;;;;;5071209;28;20221;-47
2020/12/23 10:27:16;;;;;;;34.95;8.65;;;;;;;;;;5072292;28;20186;-47
2020/12/23 10:29:42;;;;;;;32.35;10.13;;;;;;;;;;5070917;28;20194;-47
2020/12/23 10:32:08;;;;;;;31.23;8.05;;;;;;;;;;5075957;28;20162;-47
2020/12/23 10:34:34;;;;;;;29.80;8.73;;;;;;;;;;5075294;28;20538;-47
2020/12/23 10:37:00;;;;;;;30.20;8.23;;;;;;;;;;5076090;28;20166;-47
2020/12/23 10:39:26;;;;;;;31.55;9.10;;;;;;;;;;5075586;28;20179;-46
2020/12/23 10:41:53;;;;;;;28.77;8.07;;;;;;;;;;5075739;28;20174;-46
2020/12/23 10:44:20;;;;;;;33.72;8.15;;;;;;;;;;5073758;28;20190;-47
2020/12/23 10:46:46;;;;;;;32.65;8.32;;;;;;;;;;5074983;28;20429;-45
2020/12/23 10:49:12;;;;;;;25.33;8.20;;;;;;;;;;5057188;28;20190;-45
2020/12/23 10:51:38;;;;;;;23.13;7.97;;;;;;;;;;5055484;28;20186;-45
2020/12/23 10:54:04;;;;;;;22.45;7.05;;;;;;;;;;5055326;28;20175;-48
2020/12/23 10:56:30;;;;;;;24.20;7.45;;;;;;;;;;5054981;28;20198;-46
2020/12/23 10:58:55;;;;;;;21.20;7.18;;;;;;;;;;5055379;28;20163;-48
2020/12/23 11:01:21;;;;;;;20.40;6.63;;;;;;;;;;5056423;28;20638;-47
2020/12/23 11:03:48;;;;;;;27.75;7.95;;;;;;;;;;5068958;28;20186;-45
2020/12/23 11:06:14;;;;;;;22.15;6.82;;;;;;;;;;5074970;28;20205;-47
2020/12/23 11:08:41;;;;;;;18.13;6.75;;;;;;;;;;5075296;28;20178;-46
2020/12/23 11:11:07;;;;;;;22.42;6.78;;;;;;;;;;5075226;28;20198;-46
2020/12/23 11:13:33;;;;;;;20.58;6.18;;;;;;;;;;5075293;28;20265;-46
2020/12/23 11:15:59;;;;;;;18.85;6.55;;;;;;;;;;5075031;28;20266;-49
2020/12/23 11:18:25;;;;;;;19.42;5.72;;;;;;;;;;5061485;28;20187;-46
2020/12/23 11:20:51;;;;;;;15.23;5.60;;;;;;;;;;5069530;28;20190;-46
2020/12/23 11:23:24;;;;;;;18.48;5.90;;;;;;;;;;5065821;28;20205;-47
2020/12/23 11:25:50;;;;;;;12.40;4.35;;;;;;;;;;5054991;28;20207;-47
2020/12/23 11:28:16;;;;;;;14.65;4.40;;;;;;;;;;5055416;28;20682;-47
2020/12/23 11:30:42;;;;;;;12.25;4.90;;;;;;;;;;5054927;28;20178;-46
2020/12/23 11:33:08;;;;;;;15.60;4.80;;;;;;;;;;5055479;28;20163;-48
2020/12/23 11:35:34;;;;;;;12.60;4.57;;;;;;;;;;5055856;28;20179;-45
2020/12/23 11:38:00;;;;;;;12.30;3.90;;;;;;;;;;5063885;28;20189;-46
2020/12/23 11:40:26;;;;;;;11.73;4.43;;;;;;;;;;5074864;28;20265;-46
2020/12/23 11:42:52;;;;;;;11.75;4.18;;;;;;;;;;5075189;28;20512;-45
2020/12/23 11:45:18;;;;;;;17.10;4.60;;;;;;;;;;5074091;28;20230;-48
2020/12/23 11:47:45;;;;;;;13.02;4.75;;;;;;;;;;5068254;28;20431;-47
2020/12/23 11:50:11;;;;;;;10.13;3.80;;;;;;;;;;5060131;28;20446;-45
2020/12/23 11:52:37;;;;;;;10.60;4.32;;;;;;;;;;5073425;28;20265;-47
2020/12/23 11:55:03;;;;;;;13.70;4.63;;;;;;;;;;5055385;28;20214;-47
2020/12/23 11:57:29;;;;;;;25.30;8.70;;;;;;;;;;5055508;28;20191;-47
2020/12/23 11:59:55;;;;;;;22.80;8.07;;;;;;;;;;5055224;28;20187;-47
2020/12/23 12:02:21;;;;;;;17.30;6.40;;;;;;;;;;5054428;28;20187;-45
2020/12/23 12:04:47;;;;;;;23.77;8.93;;;;;;;;;;5061017;28;20458;-45
2020/12/23 12:07:12;;;;;;;31.20;10.10;;;;;;;;;;5062718;28;20187;-46
2020/12/23 12:09:38;;;;;;;35.08;12.57;;;;;;;;;;5057234;28;20183;-47
2020/12/23 12:12:04;;;;;;;57.60;18.75;;;;;;;;;;5058874;28;20181;-47
2020/12/23 12:14:31;;;;;;;94.93;24.85;;;;;;;;;;5054444;28;20226;-46
2020/12/23 12:16:57;;;;;;;70.72;23.80;;;;;;;;;;5054674;28;20613;-46
2020/12/23 12:19:23;;;;;;;86.65;31.80;;;;;;;;;;5054686;28;20551;-46
2020/12/23 12:21:49;;;;;;;86.90;30.77;;;;;;;;;;5054431;28;20187;-46
2020/12/23 12:24:15;;;;;;;90.57;33.97;;;;;;;;;;5055212;28;20229;-46
2020/12/23 12:26:41;;;;;;;90.18;32.78;;;;;;;;;;5054495;28;20225;-46
2020/12/23 12:29:07;;;;;;;77.20;30.98;;;;;;;;;;5054806;28;20179;-46
2020/12/23 12:31:33;;;;;;;74.50;29.15;;;;;;;;;;5063136;28;20562;-46
2020/12/23 12:33:59;;;;;;;78.05;29.25;;;;;;;;;;5059337;28;20503;-46
2020/12/23 12:36:26;;;;;;;63.42;27.63;;;;;;;;;;5066821;28;20205;-46
2020/12/23 12:38:52;;;;;;;63.22;27.90;;;;;;;;;;5064081;28;21581;-47
2020/12/23 12:41:25;;;;;;;61.67;26.02;;;;;;;;;;5063594;28;20462;-44
2020/12/23 12:43:51;;;;;;;66.68;25.95;;;;;;;;;;5075910;28;20277;-46
2020/12/23 12:46:17;;;;;;;47.17;21.98;;;;;;;;;;5057698;28;20285;-46
2020/12/23 12:48:43;;;;;;;54.38;23.45;;;;;;;;;;5075426;28;20189;-45
2020/12/23 12:51:09;;;;;;;52.13;22.00;;;;;;;;;;5072424;28;20184;-46
2020/12/23 12:53:35;;;;;;;43.78;19.92;;;;;;;;;;5068038;28;20190;-44
2020/12/23 12:56:02;;;;;;;50.33;20.33;;;;;;;;;;5072035;28;20542;-44
2020/12/23 12:58:28;;;;;;;49.03;19.73;;;;;;;;;;5058262;28;20500;-43
2020/12/23 13:00:53;;;;;;;45.22;19.38;;;;;;;;;;5077773;28;20178;-45
2020/12/23 13:03:20;;;;;;;38.35;17.60;;;;;;;;;;5071803;28;20451;-45
2020/12/23 13:05:50;;;;;;;52.17;20.92;;;;;;;;;;5063750;28;20210;-46
2020/12/23 13:08:16;;;;;;;34.67;15.27;;;;;;;;;;5066682;28;20175;-46
2020/12/23 13:10:43;;;;;;;47.60;17.17;;;;;;;;;;5063235;28;20237;-45
2020/12/23 13:13:09;;;;;;;40.60;15.52;;;;;;;;;;5057724;28;20183;-45
2020/12/23 13:15:35;;;;;;;31.40;14.20;;;;;;;;;;5074956;28;20189;-45
2020/12/23 13:18:02;;;;;;;31.83;13.82;;;;;;;;;;5073750;28;20320;-45
2020/12/23 13:20:28;;;;;;;32.90;15.10;;;;;;;;;;5061893;28;20194;-45
2020/12/23 13:22:54;;;;;;;29.90;12.70;;;;;;;;;;5077567;28;20178;-45
2020/12/23 13:25:21;;;;;;;28.40;12.57;;;;;;;;;;5074782;28;20242;-45
2020/12/23 13:27:47;;;;;;;29.40;12.63;;;;;;;;;;5062535;28;20187;-45
2020/12/23 13:30:13;;;;;;;24.15;11.20;;;;;;;;;;5072711;28;20467;-45
2020/12/23 13:32:39;;;;;;;23.75;11.05;;;;;;;;;;5070125;28;20179;-48
2020/12/23 13:35:07;;;;;;;29.50;12.32;;;;;;;;;;5056856;28;20179;-45
2020/12/23 13:37:33;;;;;;;19.75;10.60;;;;;;;;;;5065914;28;20186;-45
2020/12/23 13:40:00;;;;;;;25.38;11.85;;;;;;;;;;5077416;28;20185;-45
2020/12/23 13:42:26;;;;;;;25.63;11.07;;;;;;;;;;5076847;28;20189;-45
2020/12/23 13:44:52;;;;;;;26.42;10.63;;;;;;;;;;5075329;28;20277;-45
2020/12/23 13:47:19;;;;;;;27.15;10.82;;;;;;;;;;5073304;28;20317;-45
2020/12/23 13:49:45;;;;;;;20.70;9.88;;;;;;;;;;5061605;28;20183;-45
2020/12/23 13:52:12;;;;;;;22.45;9.98;;;;;;;;;;5065459;28;20265;-45
2020/12/23 13:54:38;;;;;;;19.35;10.05;;;;;;;;;;5063845;28;20198;-45
2020/12/23 13:57:05;;;;;;;19.63;9.65;;;;;;;;;;5056083;28;20178;-45
2020/12/23 13:59:31;;;;;;;18.63;9.60;;;;;;;;;;5055652;28;20201;-45
2020/12/23 14:01:58;;;;;;;18.70;8.88;;;;;;;;;;5057457;28;20195;-45
2020/12/23 14:04:24;;;;;;;21.05;9.77;;;;;;;;;;5064811;28;20198;-45
2020/12/23 14:06:50;;;;;;;19.33;9.10;;;;;;;;;;5076778;28;20167;-45
2020/12/23 14:09:16;;;;;;;17.58;8.82;;;;;;;;;;5075649;28;20501;-45
2020/12/23 14:11:43;;;;;;;20.25;9.20;;;;;;;;;;5071354;28;20270;-47
2020/12/23 14:14:09;;;;;;;19.55;8.98;;;;;;;;;;5056519;28;20597;-45
2020/12/23 14:16:36;;;;;;;18.08;9.05;;;;;;;;;;5057748;28;20532;-45
2020/12/23 14:19:02;;;;;;;21.45;8.70;;;;;;;;;;5066000;28;20181;-45
2020/12/23 14:21:28;;;;;;;16.08;8.13;;;;;;;;;;5076088;28;20174;-45
2020/12/23 14:23:55;;;;;;;15.60;8.10;;;;;;;;;;5076478;28;20549;-46
2020/12/23 14:26:21;;;;;;;16.40;8.55;;;;;;;;;;5068913;28;20229;-44
2020/12/23 14:28:47;;;;;;;15.55;5.10;;;;;;;;;;5055502;28;20612;-44
2020/12/23 14:31:14;;;;;;;8.80;4.47;;;;;;;;;;5055962;28;20208;-47
2020/12/23 14:33:41;;;;;;;7.20;4.40;;;;;;;;;;5060391;28;20179;-45
2020/12/23 14:36:12;;;;;;;8.60;5.13;;;;;;;;;;5055516;28;20182;-46
2020/12/23 14:38:38;;;;;;;10.65;5.75;;;;;;;;;;5055659;28;20179;-46